sensor_id;sensor_type;location;lat;lon;timestamp;P1;durP1;ratioP1;P2;durP2;ratioP2
52284;SDS011;38238;53.304;6.606;2023-03-01T00:01:12;13.65;;;12.30;;
52284;SDS011;38238;53.304;6.606;2023-03-01T00:03:41;12.30;;;11.00;;
52284;SDS011;38238;53.304;6.606;2023-03-01T00:06:07;12.88;;;11.75;;
52284;SDS011;38238;53.304;6.606;2023-03-01T00:08:33;12.05;;;10.50;;
52284;SDS011;38238;53.304;6.606;2023-03-01T00:11:02;12.32;;;11.02;;
52284;SDS011;38238;53.304;6.606;2023-03-01T00:13:29;11.90;;;10.70;;
52284;SDS011;38238;53.304;6.606;2023-03-01T00:15:55;12.32;;;10.65;;
52284;SDS011;38238;53.304;6.606;2023-03-01T00:18:21;15.48;;;12.10;;
52284;SDS011;38238;53.304;6.606;2023-03-01T00:20:54;12.43;;;11.13;;
52284;SDS011;38238;53.304;6.606;2023-03-01T00:23:22;12.93;;;11.63;;
52284;SDS011;38238;53.304;6.606;2023-03-01T00:25:48;15.10;;;12.88;;
52284;SDS011;38238;53.304;6.606;2023-03-01T00:28:15;12.77;;;11.48;;
52284;SDS011;38238;53.304;6.606;2023-03-01T00:30:41;13.45;;;12.20;;
52284;SDS011;38238;53.304;6.606;2023-03-01T00:33:07;12.27;;;10.98;;
52284;SDS011;38238;53.304;6.606;2023-03-01T00:35:33;12.98;;;11.80;;
52284;SDS011;38238;53.304;6.606;2023-03-01T00:37:59;14.32;;;12.93;;
52284;SDS011;38238;53.304;6.606;2023-03-01T00:40:25;14.90;;;13.27;;
52284;SDS011;38238;53.304;6.606;2023-03-01T00:42:52;14.38;;;12.88;;
52284;SDS011;38238;53.304;6.606;2023-03-01T00:45:18;17.67;;;14.15;;
52284;SDS011;38238;53.304;6.606;2023-03-01T00:47:43;16.02;;;14.10;;
52284;SDS011;38238;53.304;6.606;2023-03-01T00:50:10;21.23;;;15.68;;
52284;SDS011;38238;53.304;6.606;2023-03-01T00:52:36;70.75;;;19.10;;
52284;SDS011;38238;53.304;6.606;2023-03-01T00:55:02;15.80;;;11.60;;
52284;SDS011;38238;53.304;6.606;2023-03-01T00:57:29;64.45;;;14.50;;
52284;SDS011;38238;53.304;6.606;2023-03-01T00:59:55;22.27;;;13.98;;
52284;SDS011;38238;53.304;6.606;2023-03-01T01:02:20;37.00;;;15.45;;
52284;SDS011;38238;53.304;6.606;2023-03-01T01:04:46;36.30;;;14.63;;
52284;SDS011;38238;53.304;6.606;2023-03-01T01:07:12;29.48;;;16.88;;
52284;SDS011;38238;53.304;6.606;2023-03-01T01:09:39;22.20;;;17.20;;
52284;SDS011;38238;53.304;6.606;2023-03-01T01:12:05;21.67;;;16.40;;
52284;SDS011;38238;53.304;6.606;2023-03-01T01:14:31;36.47;;;16.75;;
52284;SDS011;38238;53.304;6.606;2023-03-01T01:16:56;41.20;;;15.20;;
52284;SDS011;38238;53.304;6.606;2023-03-01T01:19:23;27.05;;;15.73;;
52284;SDS011;38238;53.304;6.606;2023-03-01T01:21:50;64.05;;;17.33;;
52284;SDS011;38238;53.304;6.606;2023-03-01T01:24:16;82.88;;;17.52;;
52284;SDS011;38238;53.304;6.606;2023-03-01T01:26:42;144.50;;;21.48;;
52284;SDS011;38238;53.304;6.606;2023-03-01T01:29:08;56.50;;;14.90;;
52284;SDS011;38238;53.304;6.606;2023-03-01T01:31:36;120.53;;;18.35;;
52284;SDS011;38238;53.304;6.606;2023-03-01T01:34:04;73.53;;;16.52;;
52284;SDS011;38238;53.304;6.606;2023-03-01T01:36:32;157.93;;;22.23;;
52284;SDS011;38238;53.304;6.606;2023-03-01T01:38:59;165.18;;;21.58;;
52284;SDS011;38238;53.304;6.606;2023-03-01T01:41:25;209.80;;;26.35;;
52284;SDS011;38238;53.304;6.606;2023-03-01T01:49:17;189.55;;;23.85;;
52284;SDS011;38238;53.304;6.606;2023-03-01T01:51:59;177.82;;;21.73;;
52284;SDS011;38238;53.304;6.606;2023-03-01T01:54:44;174.55;;;22.73;;
52284;SDS011;38238;53.304;6.606;2023-03-01T01:57:16;187.73;;;23.30;;
52284;SDS011;38238;53.304;6.606;2023-03-01T01:59:48;142.95;;;21.90;;
52284;SDS011;38238;53.304;6.606;2023-03-01T02:02:17;111.63;;;18.98;;
52284;SDS011;38238;53.304;6.606;2023-03-01T02:04:44;141.05;;;20.25;;
52284;SDS011;38238;53.304;6.606;2023-03-01T02:07:14;140.90;;;19.73;;
52284;SDS011;38238;53.304;6.606;2023-03-01T02:09:48;146.10;;;21.17;;
52284;SDS011;38238;53.304;6.606;2023-03-01T02:12:16;98.78;;;17.08;;
52284;SDS011;38238;53.304;6.606;2023-03-01T02:14:45;149.15;;;19.55;;
52284;SDS011;38238;53.304;6.606;2023-03-01T02:17:11;148.38;;;18.33;;
52284;SDS011;38238;53.304;6.606;2023-03-01T02:22:32;72.95;;;16.10;;
52284;SDS011;38238;53.304;6.606;2023-03-01T02:27:43;37.42;;;13.43;;
52284;SDS011;38238;53.304;6.606;2023-03-01T02:30:22;40.25;;;13.13;;
52284;SDS011;38238;53.304;6.606;2023-03-01T02:32:49;34.05;;;11.73;;
52284;SDS011;38238;53.304;6.606;2023-03-01T02:35:19;34.13;;;11.80;;
52284;SDS011;38238;53.304;6.606;2023-03-01T02:37:46;38.60;;;11.90;;
52284;SDS011;38238;53.304;6.606;2023-03-01T02:40:16;17.58;;;13.23;;
52284;SDS011;38238;53.304;6.606;2023-03-01T02:42:47;39.55;;;15.45;;
52284;SDS011;38238;53.304;6.606;2023-03-01T02:45:17;34.40;;;15.10;;
52284;SDS011;38238;53.304;6.606;2023-03-01T02:47:42;14.95;;;12.63;;
52284;SDS011;38238;53.304;6.606;2023-03-01T02:52:55;14.93;;;13.32;;
52284;SDS011;38238;53.304;6.606;2023-03-01T02:55:29;14.20;;;11.38;;
52284;SDS011;38238;53.304;6.606;2023-03-01T02:57:55;14.45;;;12.55;;
52284;SDS011;38238;53.304;6.606;2023-03-01T03:00:26;15.02;;;13.35;;
52284;SDS011;38238;53.304;6.606;2023-03-01T03:03:00;13.93;;;12.40;;
52284;SDS011;38238;53.304;6.606;2023-03-01T03:05:28;13.25;;;11.85;;
52284;SDS011;38238;53.304;6.606;2023-03-01T03:07:56;12.63;;;11.32;;
52284;SDS011;38238;53.304;6.606;2023-03-01T03:10:24;14.23;;;12.73;;
52284;SDS011;38238;53.304;6.606;2023-03-01T03:13:03;15.52;;;14.02;;
52284;SDS011;38238;53.304;6.606;2023-03-01T03:15:31;13.70;;;12.13;;
52284;SDS011;38238;53.304;6.606;2023-03-01T03:17:58;13.48;;;12.15;;
52284;SDS011;38238;53.304;6.606;2023-03-01T03:20:25;12.82;;;11.55;;
52284;SDS011;38238;53.304;6.606;2023-03-01T03:22:52;12.75;;;11.23;;
52284;SDS011;38238;53.304;6.606;2023-03-01T03:25:19;11.45;;;10.35;;
52284;SDS011;38238;53.304;6.606;2023-03-01T03:27:46;10.82;;;9.80;;
52284;SDS011;38238;53.304;6.606;2023-03-01T03:30:18;11.60;;;10.60;;
52284;SDS011;38238;53.304;6.606;2023-03-01T03:32:45;9.57;;;8.68;;
52284;SDS011;38238;53.304;6.606;2023-03-01T03:35:22;11.32;;;10.23;;
52284;SDS011;38238;53.304;6.606;2023-03-01T03:37:50;9.65;;;8.85;;
52284;SDS011;38238;53.304;6.606;2023-03-01T03:40:38;11.10;;;10.00;;
52284;SDS011;38238;53.304;6.606;2023-03-01T03:43:10;10.98;;;9.98;;
52284;SDS011;38238;53.304;6.606;2023-03-01T03:45:37;13.25;;;12.05;;
52284;SDS011;38238;53.304;6.606;2023-03-01T03:48:04;14.65;;;13.35;;
52284;SDS011;38238;53.304;6.606;2023-03-01T03:50:32;12.43;;;11.10;;
52284;SDS011;38238;53.304;6.606;2023-03-01T03:52:59;25.27;;;17.40;;
52284;SDS011;38238;53.304;6.606;2023-03-01T03:55:26;13.38;;;12.18;;
52284;SDS011;38238;53.304;6.606;2023-03-01T03:57:56;11.45;;;10.55;;
52284;SDS011;38238;53.304;6.606;2023-03-01T04:00:23;10.82;;;9.80;;
52284;SDS011;38238;53.304;6.606;2023-03-01T04:02:49;10.90;;;9.90;;
52284;SDS011;38238;53.304;6.606;2023-03-01T04:05:16;12.20;;;10.85;;
52284;SDS011;38238;53.304;6.606;2023-03-01T04:07:44;11.27;;;10.10;;
52284;SDS011;38238;53.304;6.606;2023-03-01T04:10:14;11.13;;;10.13;;
52284;SDS011;38238;53.304;6.606;2023-03-01T04:12:42;11.93;;;10.93;;
52284;SDS011;38238;53.304;6.606;2023-03-01T04:15:08;11.23;;;10.32;;
52284;SDS011;38238;53.304;6.606;2023-03-01T04:17:39;11.10;;;10.20;;
52284;SDS011;38238;53.304;6.606;2023-03-01T04:20:07;28.95;;;13.13;;
52284;SDS011;38238;53.304;6.606;2023-03-01T04:22:34;23.38;;;11.35;;
52284;SDS011;38238;53.304;6.606;2023-03-01T04:25:00;39.63;;;12.98;;
52284;SDS011;38238;53.304;6.606;2023-03-01T04:27:31;34.63;;;12.57;;
52284;SDS011;38238;53.304;6.606;2023-03-01T04:30:01;47.50;;;15.13;;
52284;SDS011;38238;53.304;6.606;2023-03-01T04:32:31;185.13;;;23.20;;
52284;SDS011;38238;53.304;6.606;2023-03-01T04:34:56;13.75;;;11.75;;
52284;SDS011;38238;53.304;6.606;2023-03-01T04:37:22;170.52;;;23.10;;
52284;SDS011;38238;53.304;6.606;2023-03-01T04:39:49;81.95;;;19.65;;
52284;SDS011;38238;53.304;6.606;2023-03-01T04:42:14;128.25;;;16.90;;
52284;SDS011;38238;53.304;6.606;2023-03-01T04:44:41;118.65;;;19.77;;
52284;SDS011;38238;53.304;6.606;2023-03-01T04:47:08;11.43;;;10.23;;
52284;SDS011;38238;53.304;6.606;2023-03-01T04:49:34;15.25;;;11.52;;
52284;SDS011;38238;53.304;6.606;2023-03-01T04:51:59;11.18;;;10.18;;
52284;SDS011;38238;53.304;6.606;2023-03-01T04:54:33;10.43;;;9.52;;
52284;SDS011;38238;53.304;6.606;2023-03-01T04:57:00;10.98;;;9.98;;
52284;SDS011;38238;53.304;6.606;2023-03-01T04:59:27;11.50;;;9.50;;
52284;SDS011;38238;53.304;6.606;2023-03-01T05:01:54;11.25;;;10.25;;
52284;SDS011;38238;53.304;6.606;2023-03-01T05:04:24;11.68;;;10.68;;
52284;SDS011;38238;53.304;6.606;2023-03-01T05:06:50;11.43;;;10.43;;
52284;SDS011;38238;53.304;6.606;2023-03-01T05:09:16;11.23;;;10.15;;
52284;SDS011;38238;53.304;6.606;2023-03-01T05:11:41;13.35;;;12.00;;
52284;SDS011;38238;53.304;6.606;2023-03-01T05:14:08;11.48;;;10.27;;
52284;SDS011;38238;53.304;6.606;2023-03-01T05:16:34;11.50;;;10.32;;
52284;SDS011;38238;53.304;6.606;2023-03-01T05:19:01;11.60;;;10.60;;
52284;SDS011;38238;53.304;6.606;2023-03-01T05:21:37;11.02;;;10.02;;
52284;SDS011;38238;53.304;6.606;2023-03-01T05:24:26;10.60;;;9.60;;
52284;SDS011;38238;53.304;6.606;2023-03-01T05:26:52;11.35;;;10.35;;
52284;SDS011;38238;53.304;6.606;2023-03-01T05:29:22;10.65;;;9.75;;
52284;SDS011;38238;53.304;6.606;2023-03-01T05:31:53;10.27;;;9.27;;
52284;SDS011;38238;53.304;6.606;2023-03-01T05:34:38;10.18;;;9.27;;
52284;SDS011;38238;53.304;6.606;2023-03-01T05:37:04;11.20;;;10.20;;
52284;SDS011;38238;53.304;6.606;2023-03-01T05:39:30;10.80;;;9.90;;
52284;SDS011;38238;53.304;6.606;2023-03-01T05:41:57;11.75;;;10.25;;
52284;SDS011;38238;53.304;6.606;2023-03-01T05:44:24;11.25;;;10.07;;
52284;SDS011;38238;53.304;6.606;2023-03-01T05:46:51;12.40;;;11.15;;
52284;SDS011;38238;53.304;6.606;2023-03-01T05:49:17;12.45;;;11.18;;
52284;SDS011;38238;53.304;6.606;2023-03-01T05:51:46;11.82;;;10.73;;
52284;SDS011;38238;53.304;6.606;2023-03-01T05:54:14;11.38;;;10.38;;
52284;SDS011;38238;53.304;6.606;2023-03-01T05:56:40;12.88;;;11.57;;
52284;SDS011;38238;53.304;6.606;2023-03-01T05:59:05;12.82;;;11.52;;
52284;SDS011;38238;53.304;6.606;2023-03-01T06:01:31;12.63;;;11.30;;
52284;SDS011;38238;53.304;6.606;2023-03-01T06:03:58;12.95;;;11.60;;
52284;SDS011;38238;53.304;6.606;2023-03-01T06:06:24;13.95;;;12.50;;
52284;SDS011;38238;53.304;6.606;2023-03-01T06:08:50;13.88;;;12.15;;
52284;SDS011;38238;53.304;6.606;2023-03-01T06:11:17;13.25;;;11.77;;
52284;SDS011;38238;53.304;6.606;2023-03-01T06:13:44;16.15;;;13.50;;
52284;SDS011;38238;53.304;6.606;2023-03-01T06:16:10;15.10;;;13.52;;
52284;SDS011;38238;53.304;6.606;2023-03-01T06:18:37;14.82;;;13.27;;
52284;SDS011;38238;53.304;6.606;2023-03-01T06:21:03;16.42;;;13.93;;
52284;SDS011;38238;53.304;6.606;2023-03-01T06:23:30;14.23;;;12.82;;
52284;SDS011;38238;53.304;6.606;2023-03-01T06:25:56;14.75;;;13.25;;
52284;SDS011;38238;53.304;6.606;2023-03-01T06:28:21;15.20;;;13.70;;
52284;SDS011;38238;53.304;6.606;2023-03-01T06:30:47;14.27;;;12.73;;
52284;SDS011;38238;53.304;6.606;2023-03-01T06:33:14;14.02;;;12.63;;
52284;SDS011;38238;53.304;6.606;2023-03-01T06:35:40;13.50;;;12.00;;
52284;SDS011;38238;53.304;6.606;2023-03-01T06:38:06;15.10;;;13.20;;
52284;SDS011;38238;53.304;6.606;2023-03-01T06:40:32;12.93;;;11.10;;
52284;SDS011;38238;53.304;6.606;2023-03-01T06:43:00;16.15;;;12.90;;
52284;SDS011;38238;53.304;6.606;2023-03-01T06:45:26;14.50;;;12.93;;
52284;SDS011;38238;53.304;6.606;2023-03-01T06:47:51;14.98;;;13.52;;
52284;SDS011;38238;53.304;6.606;2023-03-01T06:50:17;14.48;;;13.07;;
52284;SDS011;38238;53.304;6.606;2023-03-01T06:52:44;14.90;;;13.43;;
52284;SDS011;38238;53.304;6.606;2023-03-01T06:55:10;14.75;;;13.25;;
52284;SDS011;38238;53.304;6.606;2023-03-01T06:57:37;14.25;;;12.85;;
52284;SDS011;38238;53.304;6.606;2023-03-01T07:00:03;14.35;;;12.95;;
52284;SDS011;38238;53.304;6.606;2023-03-01T07:02:30;14.52;;;13.13;;
52284;SDS011;38238;53.304;6.606;2023-03-01T07:04:56;15.18;;;13.45;;
52284;SDS011;38238;53.304;6.606;2023-03-01T07:07:22;14.43;;;13.05;;
52284;SDS011;38238;53.304;6.606;2023-03-01T07:09:48;14.02;;;12.40;;
52284;SDS011;38238;53.304;6.606;2023-03-01T07:12:14;13.63;;;12.32;;
52284;SDS011;38238;53.304;6.606;2023-03-01T07:14:40;14.95;;;13.55;;
52284;SDS011;38238;53.304;6.606;2023-03-01T07:17:06;15.98;;;14.55;;
52284;SDS011;38238;53.304;6.606;2023-03-01T07:19:31;16.23;;;13.23;;
52284;SDS011;38238;53.304;6.606;2023-03-01T07:21:57;15.05;;;12.98;;
52284;SDS011;38238;53.304;6.606;2023-03-01T07:24:23;14.85;;;13.55;;
52284;SDS011;38238;53.304;6.606;2023-03-01T07:26:49;16.25;;;14.73;;
52284;SDS011;38238;53.304;6.606;2023-03-01T07:29:16;17.50;;;15.80;;
52284;SDS011;38238;53.304;6.606;2023-03-01T07:31:42;15.13;;;13.65;;
52284;SDS011;38238;53.304;6.606;2023-03-01T07:34:08;16.23;;;14.70;;
52284;SDS011;38238;53.304;6.606;2023-03-01T07:36:35;16.42;;;14.80;;
52284;SDS011;38238;53.304;6.606;2023-03-01T07:39:02;16.77;;;15.07;;
52284;SDS011;38238;53.304;6.606;2023-03-01T07:41:28;17.27;;;15.57;;
52284;SDS011;38238;53.304;6.606;2023-03-01T07:43:54;16.88;;;15.18;;
52284;SDS011;38238;53.304;6.606;2023-03-01T07:46:20;17.55;;;15.75;;
52284;SDS011;38238;53.304;6.606;2023-03-01T07:48:46;18.20;;;16.30;;
52284;SDS011;38238;53.304;6.606;2023-03-01T07:51:12;19.45;;;17.63;;
52284;SDS011;38238;53.304;6.606;2023-03-01T07:53:38;20.50;;;18.52;;
52284;SDS011;38238;53.304;6.606;2023-03-01T07:56:07;18.50;;;16.83;;
52284;SDS011;38238;53.304;6.606;2023-03-01T07:58:38;19.67;;;17.85;;
52284;SDS011;38238;53.304;6.606;2023-03-01T08:01:08;19.10;;;17.30;;
52284;SDS011;38238;53.304;6.606;2023-03-01T08:03:39;18.60;;;16.80;;
52284;SDS011;38238;53.304;6.606;2023-03-01T08:06:06;18.85;;;17.05;;
52284;SDS011;38238;53.304;6.606;2023-03-01T08:08:34;19.23;;;17.15;;
52284;SDS011;38238;53.304;6.606;2023-03-01T08:11:01;21.63;;;19.52;;
52284;SDS011;38238;53.304;6.606;2023-03-01T08:13:28;20.42;;;18.13;;
52284;SDS011;38238;53.304;6.606;2023-03-01T08:15:54;23.58;;;18.08;;
52284;SDS011;38238;53.304;6.606;2023-03-01T08:18:20;21.15;;;18.88;;
52284;SDS011;38238;53.304;6.606;2023-03-01T08:20:46;21.50;;;19.20;;
52284;SDS011;38238;53.304;6.606;2023-03-01T08:23:12;22.35;;;19.85;;
52284;SDS011;38238;53.304;6.606;2023-03-01T08:25:38;23.00;;;18.35;;
52284;SDS011;38238;53.304;6.606;2023-03-01T08:28:04;24.73;;;20.25;;
52284;SDS011;38238;53.304;6.606;2023-03-01T08:30:30;24.65;;;20.65;;
52284;SDS011;38238;53.304;6.606;2023-03-01T08:32:56;25.13;;;19.85;;
52284;SDS011;38238;53.304;6.606;2023-03-01T08:35:22;29.45;;;23.02;;
52284;SDS011;38238;53.304;6.606;2023-03-01T08:37:48;25.23;;;20.60;;
52284;SDS011;38238;53.304;6.606;2023-03-01T08:40:14;29.05;;;20.00;;
52284;SDS011;38238;53.304;6.606;2023-03-01T08:42:40;30.58;;;23.92;;
52284;SDS011;38238;53.304;6.606;2023-03-01T08:45:08;34.13;;;25.98;;
52284;SDS011;38238;53.304;6.606;2023-03-01T08:47:35;30.35;;;24.20;;
52284;SDS011;38238;53.304;6.606;2023-03-01T08:50:00;39.97;;;28.60;;
52284;SDS011;38238;53.304;6.606;2023-03-01T08:52:26;33.30;;;27.98;;
52284;SDS011;38238;53.304;6.606;2023-03-01T08:54:52;33.95;;;25.80;;
52284;SDS011;38238;53.304;6.606;2023-03-01T08:57:18;33.25;;;25.92;;
52284;SDS011;38238;53.304;6.606;2023-03-01T08:59:44;32.40;;;28.88;;
52284;SDS011;38238;53.304;6.606;2023-03-01T09:02:14;30.55;;;26.35;;
52284;SDS011;38238;53.304;6.606;2023-03-01T09:04:41;40.40;;;30.15;;
52284;SDS011;38238;53.304;6.606;2023-03-01T09:07:07;36.47;;;29.20;;
52284;SDS011;38238;53.304;6.606;2023-03-01T09:09:33;33.72;;;29.27;;
52284;SDS011;38238;53.304;6.606;2023-03-01T09:12:00;39.60;;;31.92;;
52284;SDS011;38238;53.304;6.606;2023-03-01T09:14:26;36.60;;;32.22;;
52284;SDS011;38238;53.304;6.606;2023-03-01T09:16:52;40.25;;;35.85;;
52284;SDS011;38238;53.304;6.606;2023-03-01T09:19:18;43.15;;;32.90;;
52284;SDS011;38238;53.304;6.606;2023-03-01T09:21:43;36.50;;;32.45;;
52284;SDS011;38238;53.304;6.606;2023-03-01T09:24:19;33.33;;;29.83;;
52284;SDS011;38238;53.304;6.606;2023-03-01T09:26:46;34.60;;;30.02;;
52284;SDS011;38238;53.304;6.606;2023-03-01T09:29:12;36.20;;;31.63;;
52284;SDS011;38238;53.304;6.606;2023-03-01T09:31:39;40.03;;;32.70;;
52284;SDS011;38238;53.304;6.606;2023-03-01T09:34:05;38.90;;;33.03;;
52284;SDS011;38238;53.304;6.606;2023-03-01T09:36:31;35.70;;;29.63;;
52284;SDS011;38238;53.304;6.606;2023-03-01T09:38:58;37.60;;;33.75;;
52284;SDS011;38238;53.304;6.606;2023-03-01T09:46:56;37.50;;;33.53;;
52284;SDS011;38238;53.304;6.606;2023-03-01T09:49:41;36.83;;;32.78;;
52284;SDS011;38238;53.304;6.606;2023-03-01T09:52:30;35.22;;;31.25;;
52284;SDS011;38238;53.304;6.606;2023-03-01T09:55:07;34.50;;;30.75;;
52284;SDS011;38238;53.304;6.606;2023-03-01T09:57:49;37.47;;;33.60;;
52284;SDS011;38238;53.304;6.606;2023-03-01T10:00:27;38.42;;;32.60;;
52284;SDS011;38238;53.304;6.606;2023-03-01T10:14:01;32.63;;;29.10;;
52284;SDS011;38238;53.304;6.606;2023-03-01T10:16:46;34.60;;;31.02;;
52284;SDS011;38238;53.304;6.606;2023-03-01T10:19:23;36.20;;;32.50;;
52284;SDS011;38238;53.304;6.606;2023-03-01T10:22:10;33.13;;;29.95;;
52284;SDS011;38238;53.304;6.606;2023-03-01T10:24:36;31.98;;;28.77;;
52284;SDS011;38238;53.304;6.606;2023-03-01T10:27:07;32.72;;;29.27;;
52284;SDS011;38238;53.304;6.606;2023-03-01T10:32:26;31.95;;;28.98;;
52284;SDS011;38238;53.304;6.606;2023-03-01T10:34:52;31.23;;;27.17;;
52284;SDS011;38238;53.304;6.606;2023-03-01T10:37:18;28.80;;;26.08;;
52284;SDS011;38238;53.304;6.606;2023-03-01T10:40:04;24.45;;;22.05;;
52284;SDS011;38238;53.304;6.606;2023-03-01T10:42:38;26.73;;;24.05;;
52284;SDS011;38238;53.304;6.606;2023-03-01T10:47:57;25.10;;;21.30;;
52284;SDS011;38238;53.304;6.606;2023-03-01T10:50:39;23.17;;;17.90;;
52284;SDS011;38238;53.304;6.606;2023-03-01T10:55:58;17.80;;;15.90;;
52284;SDS011;38238;53.304;6.606;2023-03-01T10:58:26;17.08;;;15.02;;
52284;SDS011;38238;53.304;6.606;2023-03-01T11:00:53;17.35;;;14.57;;
52284;SDS011;38238;53.304;6.606;2023-03-01T11:03:26;16.73;;;14.63;;
52284;SDS011;38238;53.304;6.606;2023-03-01T11:08:46;17.13;;;15.13;;
52284;SDS011;38238;53.304;6.606;2023-03-01T11:14:03;15.63;;;13.93;;
52284;SDS011;38238;53.304;6.606;2023-03-01T11:16:47;16.20;;;12.48;;
52284;SDS011;38238;53.304;6.606;2023-03-01T11:19:23;13.95;;;12.27;;
52284;SDS011;38238;53.304;6.606;2023-03-01T11:22:00;14.93;;;11.95;;
52284;SDS011;38238;53.304;6.606;2023-03-01T11:27:22;16.20;;;13.57;;
52284;SDS011;38238;53.304;6.606;2023-03-01T11:29:55;16.55;;;13.38;;
52284;SDS011;38238;53.304;6.606;2023-03-01T11:32:27;14.50;;;13.00;;
52284;SDS011;38238;53.304;6.606;2023-03-01T11:34:58;15.07;;;12.05;;
52284;SDS011;38238;53.304;6.606;2023-03-01T11:37:40;15.18;;;13.20;;
52284;SDS011;38238;53.304;6.606;2023-03-01T11:45:22;13.38;;;11.98;;
52284;SDS011;38238;53.304;6.606;2023-03-01T11:48:06;12.82;;;11.25;;
52284;SDS011;38238;53.304;6.606;2023-03-01T11:50:40;12.20;;;10.82;;
52284;SDS011;38238;53.304;6.606;2023-03-01T12:01:28;11.50;;;7.93;;
52284;SDS011;38238;53.304;6.606;2023-03-01T12:20:33;9.80;;;8.70;;
52284;SDS011;38238;53.304;6.606;2023-03-01T12:31:44;10.30;;;9.23;;
52284;SDS011;38238;53.304;6.606;2023-03-01T12:53:23;10.20;;;9.07;;
52284;SDS011;38238;53.304;6.606;2023-03-01T12:55:49;12.15;;;9.65;;
52284;SDS011;38238;53.304;6.606;2023-03-01T12:58:24;10.85;;;9.68;;
52284;SDS011;38238;53.304;6.606;2023-03-01T13:03:56;11.88;;;10.40;;
52284;SDS011;38238;53.304;6.606;2023-03-01T13:06:35;12.32;;;10.50;;
52284;SDS011;38238;53.304;6.606;2023-03-01T13:11:34;12.65;;;10.82;;
52284;SDS011;38238;53.304;6.606;2023-03-01T13:16:54;14.10;;;11.70;;
52284;SDS011;38238;53.304;6.606;2023-03-01T13:21:50;13.32;;;11.68;;
52284;SDS011;38238;53.304;6.606;2023-03-01T13:29:53;12.65;;;10.77;;
52284;SDS011;38238;53.304;6.606;2023-03-01T13:32:23;13.75;;;10.85;;
52284;SDS011;38238;53.304;6.606;2023-03-01T13:34:56;13.43;;;10.55;;
52284;SDS011;38238;53.304;6.606;2023-03-01T13:37:25;12.32;;;9.32;;
52284;SDS011;38238;53.304;6.606;2023-03-01T13:40:05;12.23;;;9.80;;
52284;SDS011;38238;53.304;6.606;2023-03-01T13:42:42;13.48;;;9.77;;
52284;SDS011;38238;53.304;6.606;2023-03-01T13:48:02;14.65;;;10.13;;
52284;SDS011;38238;53.304;6.606;2023-03-01T13:50:34;11.32;;;9.35;;
52284;SDS011;38238;53.304;6.606;2023-03-01T13:53:09;13.60;;;9.98;;
52284;SDS011;38238;53.304;6.606;2023-03-01T13:55:43;15.02;;;10.68;;
52284;SDS011;38238;53.304;6.606;2023-03-01T13:58:22;11.82;;;9.90;;
52284;SDS011;38238;53.304;6.606;2023-03-01T14:01:03;13.23;;;9.15;;
52284;SDS011;38238;53.304;6.606;2023-03-01T14:03:30;10.70;;;9.27;;
52284;SDS011;38238;53.304;6.606;2023-03-01T14:05:59;12.43;;;10.10;;
52284;SDS011;38238;53.304;6.606;2023-03-01T14:08:49;11.90;;;10.13;;
52284;SDS011;38238;53.304;6.606;2023-03-01T14:19:18;11.50;;;9.52;;
52284;SDS011;38238;53.304;6.606;2023-03-01T14:21:58;13.68;;;12.07;;
52284;SDS011;38238;53.304;6.606;2023-03-01T14:24:28;13.35;;;10.18;;
52284;SDS011;38238;53.304;6.606;2023-03-01T14:26:57;14.95;;;10.63;;
52284;SDS011;38238;53.304;6.606;2023-03-01T14:29:26;12.88;;;10.10;;
52284;SDS011;38238;53.304;6.606;2023-03-01T14:32:36;12.68;;;10.20;;
52284;SDS011;38238;53.304;6.606;2023-03-01T14:34:56;13.30;;;10.65;;
52284;SDS011;38238;53.304;6.606;2023-03-01T14:37:25;14.18;;;12.25;;
52284;SDS011;38238;53.304;6.606;2023-03-01T14:39:53;12.40;;;11.10;;
52284;SDS011;38238;53.304;6.606;2023-03-01T14:42:19;14.27;;;11.27;;
52284;SDS011;38238;53.304;6.606;2023-03-01T14:44:49;13.50;;;12.10;;
52284;SDS011;38238;53.304;6.606;2023-03-01T14:49:58;14.50;;;12.63;;
52284;SDS011;38238;53.304;6.606;2023-03-01T14:52:30;14.45;;;12.00;;
52284;SDS011;38238;53.304;6.606;2023-03-01T14:55:02;15.38;;;11.90;;
52284;SDS011;38238;53.304;6.606;2023-03-01T14:57:32;13.35;;;11.90;;
52284;SDS011;38238;53.304;6.606;2023-03-01T14:59:58;13.02;;;11.60;;
52284;SDS011;38238;53.304;6.606;2023-03-01T15:02:29;14.23;;;11.60;;
52284;SDS011;38238;53.304;6.606;2023-03-01T15:04:56;12.80;;;10.93;;
52284;SDS011;38238;53.304;6.606;2023-03-01T15:07:31;13.40;;;12.00;;
52284;SDS011;38238;53.304;6.606;2023-03-01T15:10:00;12.25;;;10.27;;
52284;SDS011;38238;53.304;6.606;2023-03-01T15:14:54;13.73;;;12.23;;
52284;SDS011;38238;53.304;6.606;2023-03-01T15:17:26;13.60;;;11.77;;
52284;SDS011;38238;53.304;6.606;2023-03-01T15:19:52;12.05;;;10.73;;
52284;SDS011;38238;53.304;6.606;2023-03-01T15:22:18;13.02;;;11.35;;
52284;SDS011;38238;53.304;6.606;2023-03-01T15:24:49;12.52;;;10.48;;
52284;SDS011;38238;53.304;6.606;2023-03-01T15:27:16;16.40;;;12.38;;
52284;SDS011;38238;53.304;6.606;2023-03-01T15:29:48;15.52;;;13.10;;
52284;SDS011;38238;53.304;6.606;2023-03-01T15:32:25;15.73;;;12.85;;
52284;SDS011;38238;53.304;6.606;2023-03-01T15:34:56;14.95;;;12.48;;
52284;SDS011;38238;53.304;6.606;2023-03-01T15:37:38;16.92;;;15.02;;
52284;SDS011;38238;53.304;6.606;2023-03-01T15:42:45;17.88;;;14.40;;
52284;SDS011;38238;53.304;6.606;2023-03-01T15:47:50;15.65;;;13.82;;
52284;SDS011;38238;53.304;6.606;2023-03-01T15:52:47;16.25;;;14.25;;
52284;SDS011;38238;53.304;6.606;2023-03-01T15:55:35;20.50;;;16.60;;
52284;SDS011;38238;53.304;6.606;2023-03-01T15:58:05;19.42;;;14.35;;
52284;SDS011;38238;53.304;6.606;2023-03-01T16:00:35;15.95;;;13.73;;
52284;SDS011;38238;53.304;6.606;2023-03-01T16:03:01;16.70;;;15.00;;
52284;SDS011;38238;53.304;6.606;2023-03-01T16:05:28;16.23;;;14.52;;
52284;SDS011;38238;53.304;6.606;2023-03-01T16:07:56;18.33;;;13.88;;
52284;SDS011;38238;53.304;6.606;2023-03-01T16:10:21;16.40;;;13.70;;
52284;SDS011;38238;53.304;6.606;2023-03-01T16:12:48;15.60;;;13.98;;
52284;SDS011;38238;53.304;6.606;2023-03-01T16:15:16;16.77;;;14.50;;
52284;SDS011;38238;53.304;6.606;2023-03-01T16:17:43;20.08;;;14.70;;
52284;SDS011;38238;53.304;6.606;2023-03-01T16:20:09;16.15;;;13.10;;
52284;SDS011;38238;53.304;6.606;2023-03-01T16:22:35;18.77;;;16.98;;
52284;SDS011;38238;53.304;6.606;2023-03-01T16:25:00;17.45;;;15.73;;
52284;SDS011;38238;53.304;6.606;2023-03-01T16:27:27;19.67;;;15.13;;
52284;SDS011;38238;53.304;6.606;2023-03-01T16:29:53;17.33;;;15.38;;
52284;SDS011;38238;53.304;6.606;2023-03-01T16:32:19;18.30;;;13.70;;
52284;SDS011;38238;53.304;6.606;2023-03-01T16:34:44;15.32;;;13.90;;
52284;SDS011;38238;53.304;6.606;2023-03-01T16:37:14;23.92;;;21.85;;
52284;SDS011;38238;53.304;6.606;2023-03-01T16:39:40;20.58;;;18.85;;
52284;SDS011;38238;53.304;6.606;2023-03-01T16:42:13;15.85;;;14.23;;
52284;SDS011;38238;53.304;6.606;2023-03-01T16:44:39;16.55;;;14.95;;
52284;SDS011;38238;53.304;6.606;2023-03-01T16:47:05;23.67;;;21.73;;
52284;SDS011;38238;53.304;6.606;2023-03-01T16:49:31;16.17;;;14.48;;
52284;SDS011;38238;53.304;6.606;2023-03-01T16:51:56;17.33;;;15.15;;
52284;SDS011;38238;53.304;6.606;2023-03-01T16:54:23;15.68;;;12.93;;
52284;SDS011;38238;53.304;6.606;2023-03-01T16:56:49;14.82;;;13.40;;